Aérodrome :
LOGIN :

S'inscrire | Disclaimer

   EN    FR    IT 

 










Légende :    VFR   VFR Marginal   IFR   IFR Intensif   IFR Très Intensif
Visi : 
Plafond : 
>= 8 km
>= 3000ft
5 à 8 km
1000 à 3000 ft
1500m à 5 km
500 à 1000 ft
800 à 1500m
200 à 500 ft
< 800m
< 200 ft
Symboles :   Orages  Brouillard  Fortes neiges  Fortes précipitations  Vent > 20 kt
SIGMETs :   Divers  Orages  Givrage  Turbulence  Onde Orograph.  Cendres Volcan.







- Altitude de l'aérodrome : 79 ft
- Code IATA : SPU


LDSP - Split

DERNIER METAR :
  • 231630Z 33019G29KT CAVOK 13/03 Q1009 NOSIG

METARs EXPIRÉS :
  • 231600Z 34023G36KT CAVOK 13/03 Q1009 NOSIG
  • 231530Z 34023G36KT CAVOK 13/03 Q1008 NOSIG
  • 231500Z 34022G35KT CAVOK 13/04 Q1008 NOSIG
  • 231430Z 34020G30KT CAVOK 13/04 Q1008 NOSIG
  • 231400Z 34024G36KT CAVOK 14/03 Q1008 NOSIG

TAF TAF LDSP
Valide du 23 à 12h jusqu'au 24 à 12h UTC


231125Z 2312/2412 34015KT CAVOK TX17/2411Z TN10/2323Z
TEMPO 2314/2400 34018G30KT
Pas de NOTAMs connus pour ce terrain.
1 SIGMET publié pour la FIR Zagreb (LDZO) :
 
Turbulence forte
LDZO SIGMET 10 VALID 231400/231800 LDZA
LDZO ZAGREB FIR SEV TURB FCST WI N4514 E01450 - N4224 E01829 - N4206 E01827 - N4406 E01441 - N4514 E01450 TOP FL060 STNR NC=



MET'MAP, la Météo Aéronautique d'un coup d'oeil ! - Copyright ORBIFLY Décembre 2007 - Disclaimer

ORBIFLY MET'MAP TEAM :

Programmation & Développement : Alexandra Zaïnal
Conception & Développement : Baudouin d'Aumeries
Co-Programmation & Développement : Marc-Olivier Méhu
Soutien technique & logistique : Manuel Goepfert

Contact : metmap@orbifly.com




SOURCES & CREDITS :

   NOAA